createdAt,value
2022-09-27T00:01:49.797Z,0.40
2022-09-27T00:04:16.573Z,0.52
2022-09-27T00:06:43.277Z,0.60
2022-09-27T00:09:10.628Z,0.82
2022-09-27T00:11:39.727Z,0.45
2022-09-27T00:14:07.667Z,0.40
2022-09-27T00:16:37.259Z,0.88
2022-09-27T00:19:11.379Z,0.47
2022-09-27T00:21:38.180Z,0.52
2022-09-27T00:24:05.139Z,0.60
2022-09-27T00:26:32.089Z,0.50
2022-09-27T00:28:58.840Z,0.22
2022-09-27T00:31:30.730Z,0.40
2022-09-27T00:33:59.870Z,0.45
2022-09-27T00:36:27.971Z,0.40
2022-09-27T00:38:55.684Z,0.60
2022-09-27T00:41:34.958Z,0.40
2022-09-27T00:44:22.259Z,0.47
2022-09-27T00:46:59.567Z,0.30
2022-09-27T00:49:35.197Z,0.90
2022-09-27T00:52:16.450Z,0.30
2022-09-27T00:54:45.779Z,0.20
2022-09-27T00:57:12.473Z,0.22
2022-09-27T00:59:45.417Z,0.43
2022-09-27T01:02:12.452Z,0.32
2022-09-27T01:04:40.751Z,0.50
2022-09-27T01:07:07.491Z,0.32
2022-09-27T01:09:34.891Z,0.50
2022-09-27T01:12:30.469Z,0.50
2022-09-27T01:15:17.992Z,0.40
2022-09-27T01:18:23.919Z,0.43
2022-09-27T01:21:27.394Z,0.32
2022-09-27T01:24:22.686Z,0.40
2022-09-27T01:27:23.218Z,0.32
2022-09-27T01:30:11.023Z,0.52
2022-09-27T01:33:10.996Z,0.38
2022-09-27T01:36:17.119Z,0.38
2022-09-27T01:38:59.824Z,0.43
2022-09-27T01:42:02.830Z,0.50
2022-09-27T01:44:55.491Z,0.57
2022-09-27T01:47:39.801Z,0.40
2022-09-27T01:50:36.315Z,0.35
2022-09-27T01:53:23.313Z,0.28
2022-09-27T01:56:13.194Z,0.40
2022-09-27T01:59:01.086Z,0.40
2022-09-27T02:01:32.612Z,0.55
2022-09-27T02:04:01.778Z,0.60
2022-09-27T02:06:56.275Z,0.40
2022-09-27T02:09:40.639Z,0.43
2022-09-27T02:12:22.279Z,0.50
2022-09-27T02:15:00.544Z,0.35
2022-09-27T02:17:55.468Z,0.70
2022-09-27T02:20:39.077Z,0.50
2022-09-27T02:23:23.344Z,0.47
2022-09-27T02:26:02.003Z,0.45
2022-09-27T02:28:45.045Z,0.65
2022-09-27T02:31:18.299Z,0.52
2022-09-27T02:33:48.068Z,0.52
2022-09-27T02:36:15.518Z,0.50
2022-09-27T02:38:43.726Z,0.80
2022-09-27T02:41:20.043Z,0.43
2022-09-27T02:43:52.383Z,0.70
2022-09-27T02:46:47.863Z,0.68
2022-09-27T02:49:31.571Z,0.77
2022-09-27T02:52:26.199Z,0.55
2022-09-27T02:55:13.226Z,0.70
2022-09-27T02:58:04.658Z,0.73
2022-09-27T03:00:49.366Z,0.60
2022-09-27T03:04:04.449Z,0.60
2022-09-27T03:06:33.091Z,1.00
2022-09-27T03:08:59.837Z,0.50
2022-09-27T03:11:26.574Z,0.88
2022-09-27T03:14:08.007Z,0.60
2022-09-27T03:16:40.422Z,1.23
2022-09-27T03:19:36.438Z,0.65
2022-09-27T03:22:26.430Z,0.80
2022-09-27T03:24:53.236Z,0.70
2022-09-27T03:27:20.133Z,0.80
2022-09-27T03:29:46.810Z,0.57
2022-09-27T03:32:13.615Z,0.73
2022-09-27T03:34:49.284Z,0.70
2022-09-27T03:37:16.076Z,0.60
2022-09-27T03:39:42.815Z,0.70
2022-09-27T03:42:09.552Z,0.98
2022-09-27T03:44:40.505Z,0.88
2022-09-27T03:47:07.308Z,1.25
2022-09-27T03:49:34.011Z,0.50
2022-09-27T03:52:00.889Z,1.02
2022-09-27T03:54:27.554Z,0.63
2022-09-27T03:56:54.342Z,0.80
2022-09-27T03:59:21.395Z,1.23
2022-09-27T04:05:00.896Z,0.90
2022-09-27T04:07:31.153Z,0.80
2022-09-27T04:09:58.055Z,0.90
2022-09-27T04:12:24.731Z,0.52
2022-09-27T04:14:51.512Z,0.77
2022-09-27T04:17:53.513Z,0.90
2022-09-27T04:20:40.555Z,0.75
2022-09-27T04:23:10.279Z,1.08
2022-09-27T04:25:40.248Z,0.80
2022-09-27T04:28:15.734Z,1.10
2022-09-27T04:30:42.572Z,0.90
2022-09-27T04:33:29.303Z,0.73
2022-09-27T04:36:14.860Z,1.27
2022-09-27T04:39:00.297Z,0.88
2022-09-27T04:41:28.681Z,0.80
2022-09-27T04:43:59.221Z,0.93
2022-09-27T04:46:31.424Z,0.63
2022-09-27T04:48:59.883Z,0.68
2022-09-27T04:51:28.167Z,0.77
2022-09-27T04:53:57.263Z,0.55
2022-09-27T04:56:28.227Z,0.77
2022-09-27T04:58:54.968Z,1.10
2022-09-27T05:01:22.808Z,0.90
2022-09-27T05:04:08.023Z,0.60
2022-09-27T05:06:38.289Z,0.70
2022-09-27T05:09:08.671Z,1.38
2022-09-27T05:11:46.917Z,0.70
2022-09-27T05:14:16.644Z,0.80
2022-09-27T05:16:55.954Z,0.43
2022-09-27T05:19:40.800Z,1.13
2022-09-27T05:22:12.143Z,0.60
2022-09-27T05:24:39.183Z,0.68
2022-09-27T05:27:09.809Z,1.05
2022-09-27T05:29:36.539Z,0.57
2022-09-27T05:32:14.573Z,0.80
2022-09-27T05:34:42.712Z,1.65
2022-09-27T05:37:10.078Z,0.82
2022-09-27T05:39:39.404Z,0.95
2022-09-27T05:42:08.315Z,1.10
2022-09-27T05:44:35.347Z,1.00
2022-09-27T05:47:04.194Z,1.05
2022-09-27T05:49:34.835Z,0.77
2022-09-27T05:52:05.058Z,1.38
2022-09-27T05:54:32.738Z,1.92
2022-09-27T05:57:00.349Z,1.80
2022-09-27T05:59:47.861Z,1.27
2022-09-27T06:02:20.551Z,1.40
2022-09-27T06:05:06.877Z,1.55
2022-09-27T06:07:33.525Z,1.55
2022-09-27T06:10:06.078Z,1.75
2022-09-27T06:12:34.373Z,1.60
2022-09-27T06:15:02.903Z,1.10
2022-09-27T06:17:35.586Z,1.10
2022-09-27T06:20:09.542Z,1.13
2022-09-27T06:22:37.101Z,0.95
2022-09-27T06:25:05.274Z,1.30
2022-09-27T06:27:36.392Z,1.17
2022-09-27T06:30:14.844Z,1.20
2022-09-27T06:32:47.573Z,0.95
2022-09-27T06:35:24.883Z,1.10
2022-09-27T06:37:52.619Z,1.08
2022-09-27T06:40:20.517Z,0.80
2022-09-27T06:42:55.361Z,0.50
2022-09-27T06:45:42.709Z,0.90
2022-09-27T06:48:29.212Z,0.95
2022-09-27T06:53:37.689Z,1.08
2022-09-27T06:56:04.484Z,0.80
2022-09-27T06:59:00.854Z,1.02
2022-09-27T07:01:44.228Z,0.68
2022-09-27T07:04:29.714Z,1.10
2022-09-27T07:07:11.836Z,0.82
2022-09-27T07:09:40.809Z,0.90
2022-09-27T07:12:07.860Z,0.80
2022-09-27T07:14:35.101Z,0.90
2022-09-27T07:17:04.006Z,0.80
2022-09-27T07:19:37.895Z,0.70
2022-09-27T07:22:05.063Z,0.80
2022-09-27T07:24:32.920Z,0.85
2022-09-27T07:27:00.376Z,0.88
2022-09-27T07:29:28.097Z,0.73
2022-09-27T07:31:54.849Z,1.08
2022-09-27T07:34:21.650Z,1.73
2022-09-27T07:36:48.522Z,1.27
2022-09-27T07:39:15.667Z,0.63
2022-09-27T07:41:45.700Z,1.10
2022-09-27T07:44:16.191Z,1.10
2022-09-27T07:47:00.181Z,1.05
2022-09-27T07:49:46.813Z,0.90
2022-09-27T07:52:30.947Z,1.20
2022-09-27T07:55:17.095Z,1.13
2022-09-27T07:58:04.760Z,1.15
2022-09-27T08:00:31.598Z,0.70
2022-09-27T08:02:58.740Z,1.10
2022-09-27T08:05:25.705Z,1.08
2022-09-27T08:07:56.940Z,0.90
2022-09-27T08:10:31.237Z,1.05
2022-09-27T08:13:01.543Z,1.10
2022-09-27T08:15:28.553Z,1.02
2022-09-27T08:17:55.723Z,1.08
2022-09-27T08:20:42.419Z,1.35
2022-09-27T08:23:25.616Z,1.20
2022-09-27T08:26:07.028Z,1.77
2022-09-27T08:28:47.763Z,1.65
2022-09-27T08:31:19.320Z,1.92
2022-09-27T08:33:51.378Z,1.40
2022-09-27T08:36:18.106Z,1.23
2022-09-27T08:38:50.748Z,1.30
2022-09-27T08:41:39.751Z,1.40
2022-09-27T08:44:17.892Z,1.65
2022-09-27T08:47:07.266Z,1.73
2022-09-27T08:49:50.054Z,1.30
2022-09-27T08:52:23.452Z,1.38
2022-09-27T08:54:51.728Z,1.00
2022-09-27T08:57:18.672Z,1.02
2022-09-27T09:00:01.366Z,0.93
2022-09-27T09:02:28.734Z,0.98
2022-09-27T09:05:02.002Z,1.20
2022-09-27T09:07:47.763Z,0.90
2022-09-27T09:10:40.680Z,0.60
2022-09-27T09:13:23.533Z,0.43
2022-09-27T09:16:02.183Z,0.82
2022-09-27T09:18:55.351Z,0.50
2022-09-27T09:21:50.293Z,0.57
2022-09-27T09:24:24.769Z,0.40
2022-09-27T09:26:54.296Z,0.65
2022-09-27T09:29:40.228Z,0.60
2022-09-27T09:32:30.470Z,0.55
2022-09-27T09:35:20.242Z,0.60
2022-09-27T09:37:56.030Z,0.43
2022-09-27T09:40:31.491Z,0.80
2022-09-27T09:43:12.688Z,0.57
2022-09-27T09:45:47.111Z,0.35
2022-09-27T09:48:49.826Z,0.52
2022-09-27T09:51:22.524Z,0.55
2022-09-27T09:53:58.593Z,0.82
2022-09-27T09:56:53.229Z,0.90
2022-09-27T09:59:28.159Z,0.80
2022-09-27T10:02:00.856Z,1.00
2022-09-27T10:04:29.169Z,0.50
2022-09-27T10:07:00.564Z,0.60
2022-09-27T10:09:33.487Z,0.82
2022-09-27T10:12:19.135Z,0.50
2022-09-27T10:14:50.461Z,0.90
2022-09-27T10:17:21.544Z,0.20
2022-09-27T10:19:51.655Z,0.30
2022-09-27T10:22:25.719Z,0.63
2022-09-27T10:24:58.060Z,0.85
2022-09-27T10:27:45.847Z,0.30
2022-09-27T10:30:23.993Z,0.85
2022-09-27T10:32:54.399Z,0.22
2022-09-27T10:35:39.583Z,0.40
2022-09-27T10:38:21.744Z,0.70
2022-09-27T10:40:51.387Z,0.57
2022-09-27T10:43:32.253Z,0.52
2022-09-27T10:46:20.452Z,0.50
2022-09-27T10:49:16.374Z,0.50
2022-09-27T10:51:44.244Z,0.90
2022-09-27T10:54:34.997Z,0.77
2022-09-27T10:57:01.907Z,0.60
2022-09-27T10:59:31.339Z,0.57
2022-09-27T11:01:58.605Z,0.50
2022-09-27T11:04:38.980Z,0.40
2022-09-27T11:07:16.860Z,0.30
2022-09-27T11:09:54.639Z,0.40
2022-09-27T11:12:25.096Z,0.30
2022-09-27T11:14:59.938Z,0.50
2022-09-27T11:17:30.203Z,0.52
2022-09-27T11:20:15.438Z,0.47
2022-09-27T11:23:08.406Z,0.70
2022-09-27T11:26:33.607Z,0.40
2022-09-27T11:29:14.790Z,0.57
2022-09-27T11:32:19.556Z,0.80
2022-09-27T11:35:21.388Z,0.60
2022-09-27T11:37:51.156Z,0.70
2022-09-27T11:40:52.896Z,1.00
2022-09-27T11:43:28.790Z,0.60
2022-09-27T11:46:28.085Z,0.40
2022-09-27T11:49:07.806Z,0.52
2022-09-27T11:51:50.567Z,0.88
2022-09-27T11:54:31.682Z,0.57
2022-09-27T11:57:34.390Z,0.38
2022-09-27T12:00:17.802Z,0.43
2022-09-27T12:03:11.737Z,0.32
2022-09-27T12:06:06.331Z,0.38
2022-09-27T12:08:39.835Z,0.60
2022-09-27T12:11:21.145Z,0.25
2022-09-27T12:14:02.660Z,0.45
2022-09-27T12:16:32.231Z,0.50
2022-09-27T12:19:01.122Z,0.50
2022-09-27T12:21:47.726Z,0.57
2022-09-27T12:24:23.453Z,0.60
2022-09-27T12:27:10.389Z,0.82
2022-09-27T12:29:42.165Z,1.60
2022-09-27T12:32:23.018Z,0.60
2022-09-27T12:35:00.200Z,0.50
2022-09-27T12:37:48.515Z,0.60
2022-09-27T12:40:23.194Z,0.70
2022-09-27T12:42:57.394Z,0.60
2022-09-27T12:45:52.900Z,0.70
2022-09-27T12:48:38.789Z,0.95
2022-09-27T12:51:12.858Z,0.77
2022-09-27T12:53:55.084Z,0.63
2022-09-27T12:56:40.335Z,0.70
2022-09-27T12:59:24.671Z,1.05
2022-09-27T13:02:26.835Z,1.20
2022-09-27T13:05:31.274Z,1.00
2022-09-27T13:08:23.772Z,0.98
2022-09-27T13:11:13.616Z,0.90
2022-09-27T13:13:40.743Z,0.82
2022-09-27T13:16:11.256Z,0.80
2022-09-27T13:18:49.938Z,0.90
2022-09-27T13:21:51.369Z,0.98
2022-09-27T13:24:47.038Z,0.90
2022-09-27T13:27:28.793Z,0.88
2022-09-27T13:30:08.363Z,0.93
2022-09-27T13:32:36.997Z,0.80
2022-09-27T13:35:33.387Z,0.80
2022-09-27T13:38:22.674Z,1.00
2022-09-27T13:40:50.572Z,3.30
2022-09-27T13:43:54.356Z,0.80
2022-09-27T13:46:36.414Z,1.40
2022-09-27T13:49:25.993Z,1.38
2022-09-27T13:52:36.300Z,1.05
2022-09-27T13:55:46.442Z,1.00
2022-09-27T13:58:38.999Z,0.95
2022-09-27T14:04:04.867Z,0.57
2022-09-27T14:06:36.962Z,0.60
2022-09-27T14:09:07.827Z,1.05
2022-09-27T14:11:42.491Z,1.15
2022-09-27T14:14:19.053Z,1.30
2022-09-27T14:16:52.155Z,1.63
2022-09-27T14:19:25.937Z,1.05
2022-09-27T14:21:53.668Z,0.80
2022-09-27T14:24:33.322Z,0.75
2022-09-27T14:27:21.173Z,0.88
2022-09-27T14:30:02.445Z,0.93
2022-09-27T14:32:35.131Z,1.13
2022-09-27T14:35:33.119Z,0.95
2022-09-27T14:38:15.757Z,0.93
2022-09-27T14:40:58.108Z,0.57
2022-09-27T14:43:25.787Z,0.90
2022-09-27T14:45:58.421Z,0.70
2022-09-27T14:48:35.674Z,0.88
2022-09-27T14:51:19.252Z,1.65
2022-09-27T14:53:47.539Z,1.15
2022-09-27T14:56:23.520Z,1.23
2022-09-27T14:58:58.447Z,1.00
2022-09-27T15:01:25.719Z,1.38
2022-09-27T15:03:53.543Z,1.10
2022-09-27T15:06:20.927Z,1.50
2022-09-27T15:08:50.578Z,1.90
2022-09-27T15:11:19.210Z,1.73
2022-09-27T15:13:51.416Z,1.70
2022-09-27T15:16:21.545Z,1.65
2022-09-27T15:19:37.630Z,1.20
2022-09-27T15:22:31.743Z,1.50
2022-09-27T15:25:06.381Z,1.90
2022-09-27T15:27:33.123Z,2.10
2022-09-27T15:30:00.095Z,1.90
2022-09-27T15:32:28.958Z,1.92
2022-09-27T15:34:57.287Z,2.35
2022-09-27T15:37:34.821Z,2.70
2022-09-27T15:40:16.613Z,3.50
2022-09-27T15:42:57.783Z,3.53
2022-09-27T15:45:29.556Z,3.72
2022-09-27T15:47:56.359Z,3.25
2022-09-27T15:50:25.891Z,2.70
2022-09-27T15:52:55.962Z,2.90
2022-09-27T15:55:27.915Z,3.45
2022-09-27T15:58:01.962Z,3.50
2022-09-27T16:00:29.689Z,2.65
2022-09-27T16:02:56.607Z,2.53
2022-09-27T16:05:23.896Z,2.80
2022-09-27T16:07:51.367Z,2.50
2022-09-27T16:10:18.933Z,2.92
2022-09-27T16:12:46.009Z,2.60
2022-09-27T16:15:14.336Z,2.10
2022-09-27T16:17:42.664Z,3.10
2022-09-27T16:20:24.821Z,2.60
2022-09-27T16:22:52.545Z,2.35
2022-09-27T16:25:19.911Z,2.30
2022-09-27T16:27:47.237Z,3.05
2022-09-27T16:30:14.559Z,2.10
2022-09-27T16:32:46.655Z,1.60
2022-09-27T16:35:15.253Z,2.00
2022-09-27T16:37:42.690Z,1.80
2022-09-27T16:40:11.447Z,1.75
2022-09-27T16:42:39.264Z,1.70
2022-09-27T16:45:10.492Z,1.73
2022-09-27T16:47:38.209Z,3.33
2022-09-27T16:50:24.303Z,2.72
2022-09-27T16:52:52.190Z,3.83
2022-09-27T16:55:20.842Z,7.15
2022-09-27T16:57:48.755Z,7.60
2022-09-27T17:00:17.335Z,4.65
2022-09-27T17:02:48.390Z,5.55
2022-09-27T17:05:16.065Z,6.95
2022-09-27T17:07:42.756Z,4.78
2022-09-27T17:10:09.937Z,3.03
2022-09-27T17:12:36.616Z,3.80
2022-09-27T17:15:03.509Z,3.22
2022-09-27T17:17:30.211Z,3.42
2022-09-27T17:19:56.908Z,3.47
2022-09-27T17:22:23.655Z,4.05
2022-09-27T17:24:51.127Z,3.17
2022-09-27T17:27:17.925Z,3.35
2022-09-27T17:29:44.594Z,4.38
2022-09-27T17:32:13.543Z,3.45
2022-09-27T17:34:43.498Z,3.72
2022-09-27T17:37:13.230Z,4.32
2022-09-27T17:39:39.919Z,5.43
2022-09-27T17:42:06.885Z,3.97
2022-09-27T17:44:33.811Z,3.25
2022-09-27T17:47:30.105Z,2.75
2022-09-27T17:50:15.645Z,3.35
2022-09-27T17:52:42.357Z,2.45
2022-09-27T17:55:09.125Z,2.30
2022-09-27T17:57:35.946Z,2.63
2022-09-27T18:00:03.212Z,2.50
2022-09-27T18:02:39.508Z,3.40
2022-09-27T18:05:06.666Z,3.00
2022-09-27T18:07:33.419Z,2.28
2022-09-27T18:10:00.190Z,3.15
2022-09-27T18:12:31.848Z,3.25
2022-09-27T18:14:58.943Z,2.80
2022-09-27T18:17:25.696Z,2.20
2022-09-27T18:19:53.620Z,2.17
2022-09-27T18:22:20.300Z,2.75
2022-09-27T18:24:46.953Z,2.45
2022-09-27T18:27:18.092Z,2.40
2022-09-27T18:29:44.771Z,2.72
2022-09-27T18:32:11.432Z,2.97
2022-09-27T18:34:39.649Z,3.72
2022-09-27T18:37:06.311Z,4.75
2022-09-27T18:39:33.015Z,4.85
2022-09-27T18:41:59.755Z,3.88
2022-09-27T18:44:26.533Z,3.50
2022-09-27T18:46:53.283Z,3.17
2022-09-27T18:49:23.495Z,2.63
2022-09-27T18:51:53.290Z,3.00
2022-09-27T18:54:22.070Z,2.97
2022-09-27T18:56:50.204Z,2.67
2022-09-27T18:59:17.602Z,2.70
2022-09-27T19:01:45.878Z,3.30
2022-09-27T19:04:24.091Z,3.97
2022-09-27T19:06:52.927Z,3.28
2022-09-27T19:09:19.733Z,3.00
2022-09-27T19:11:46.674Z,3.10
2022-09-27T19:14:19.364Z,3.70
2022-09-27T19:16:47.277Z,3.30
2022-09-27T19:19:18.539Z,4.43
2022-09-27T19:21:46.171Z,4.05
2022-09-27T19:24:13.805Z,4.28
2022-09-27T19:26:40.593Z,4.50
2022-09-27T19:29:07.375Z,4.72
2022-09-27T19:31:35.878Z,4.45
2022-09-27T19:34:03.563Z,4.97
2022-09-27T19:36:30.428Z,3.47
2022-09-27T19:38:58.630Z,4.32
2022-09-27T19:41:26.432Z,4.63
2022-09-27T19:43:54.210Z,4.22
2022-09-27T19:46:22.422Z,4.15
2022-09-27T19:48:50.280Z,4.75
2022-09-27T19:51:27.456Z,3.97
2022-09-27T19:53:54.521Z,4.60
2022-09-27T19:56:22.446Z,4.70
2022-09-27T19:58:49.665Z,4.43
2022-09-27T20:01:20.095Z,4.47
2022-09-27T20:03:48.115Z,5.45
2022-09-27T20:06:17.038Z,4.70
2022-09-27T20:08:44.325Z,5.40
2022-09-27T20:11:13.744Z,4.68
2022-09-27T20:13:41.397Z,5.05
2022-09-27T20:16:09.099Z,5.72
2022-09-27T20:18:43.198Z,5.68
2022-09-27T20:21:10.390Z,5.75
2022-09-27T20:23:38.043Z,6.07
2022-09-27T20:26:08.028Z,5.80
2022-09-27T20:28:35.885Z,5.78
2022-09-27T20:31:04.940Z,6.40
2022-09-27T20:33:44.077Z,5.85
2022-09-27T20:36:17.018Z,5.60
2022-09-27T20:38:45.731Z,6.10
2022-09-27T20:41:14.465Z,5.97
2022-09-27T20:43:41.189Z,6.30
2022-09-27T20:46:11.700Z,6.80
2022-09-27T20:48:38.507Z,6.53
2022-09-27T20:51:06.559Z,6.38
2022-09-27T20:53:33.947Z,7.28
2022-09-27T20:56:04.552Z,6.07
2022-09-27T20:58:32.205Z,7.47
2022-09-27T21:01:05.742Z,7.68
2022-09-27T21:03:32.811Z,7.70
2022-09-27T21:05:59.846Z,7.03
2022-09-27T21:08:30.422Z,7.00
2022-09-27T21:11:04.851Z,6.80
2022-09-27T21:13:31.662Z,6.53
2022-09-27T21:16:03.401Z,6.63
2022-09-27T21:18:30.128Z,7.53
2022-09-27T21:21:01.520Z,7.35
2022-09-27T21:23:31.696Z,6.68
2022-09-27T21:26:22.284Z,5.93
2022-09-27T21:28:54.098Z,6.68
2022-09-27T21:31:25.901Z,6.22
2022-09-27T21:33:55.083Z,6.72
2022-09-27T21:36:23.490Z,6.10
2022-09-27T21:38:50.474Z,6.28
2022-09-27T21:41:18.312Z,6.43
2022-09-27T21:43:46.369Z,6.03
2022-09-27T21:46:20.274Z,5.85
2022-09-27T21:48:49.027Z,5.40
2022-09-27T21:51:18.530Z,5.07
2022-09-27T21:53:51.198Z,4.80
2022-09-27T21:56:20.842Z,5.35
2022-09-27T21:58:48.386Z,5.05
2022-09-27T22:01:21.691Z,5.82
2022-09-27T22:03:50.220Z,5.35
2022-09-27T22:06:19.247Z,6.07
2022-09-27T22:08:47.354Z,5.18
2022-09-27T22:11:37.823Z,5.18
2022-09-27T22:14:06.765Z,5.03
2022-09-27T22:16:33.651Z,5.68
2022-09-27T22:19:00.504Z,4.93
2022-09-27T22:21:30.975Z,4.93
2022-09-27T22:24:02.892Z,4.85
2022-09-27T22:26:34.383Z,4.88
2022-09-27T22:29:01.361Z,4.55
2022-09-27T22:31:28.654Z,5.15
2022-09-27T22:33:56.514Z,4.05
2022-09-27T22:36:24.274Z,4.65
2022-09-27T22:38:51.714Z,4.75
2022-09-27T22:41:19.155Z,4.43
2022-09-27T22:43:45.925Z,5.25
2022-09-27T22:46:13.213Z,4.18
2022-09-27T22:48:40.982Z,3.95
2022-09-27T22:51:08.349Z,3.85
2022-09-27T22:53:35.935Z,3.83
2022-09-27T22:56:10.419Z,3.90
2022-09-27T22:58:37.578Z,4.03
2022-09-27T23:01:14.482Z,3.92
2022-09-27T23:03:41.252Z,3.78
2022-09-27T23:06:08.103Z,4.07
2022-09-27T23:08:36.265Z,3.90
2022-09-27T23:11:05.207Z,4.07
2022-09-27T23:13:34.426Z,3.53
2022-09-27T23:16:02.976Z,3.85
2022-09-27T23:18:29.942Z,3.95
2022-09-27T23:21:03.269Z,3.42
2022-09-27T23:23:31.642Z,3.75
2022-09-27T23:26:03.147Z,4.22
2022-09-27T23:28:31.334Z,3.80
2022-09-27T23:31:04.798Z,3.92
2022-09-27T23:33:31.472Z,3.90
2022-09-27T23:36:01.231Z,4.32
2022-09-27T23:38:30.692Z,3.88
2022-09-27T23:40:58.159Z,4.18
2022-09-27T23:43:24.971Z,3.10
2022-09-27T23:45:54.055Z,3.45
2022-09-27T23:48:21.110Z,3.17
2022-09-27T23:50:48.228Z,3.92
2022-09-27T23:53:15.047Z,3.40
2022-09-27T23:55:41.873Z,2.97
2022-09-27T23:58:08.594Z,4.03
